createdAt,value
2017-09-15T00:00:48.766Z,100063.00
2017-09-15T00:03:16.163Z,100065.34
2017-09-15T00:05:43.556Z,100073.94
2017-09-15T00:08:10.954Z,100073.89
2017-09-15T00:10:38.350Z,100078.66
2017-09-15T00:13:05.779Z,100073.89
2017-09-15T00:15:33.176Z,100077.95
2017-09-15T00:18:00.574Z,100078.34
2017-09-15T00:20:27.974Z,100084.09
2017-09-15T00:22:55.378Z,100083.57
2017-09-15T00:25:22.778Z,100084.86
2017-09-15T00:27:50.170Z,100086.19
2017-09-15T00:30:17.579Z,100092.12
2017-09-15T00:32:44.991Z,100087.16
2017-09-15T00:35:12.438Z,100087.08
2017-09-15T00:37:39.838Z,100085.45
2017-09-15T00:40:07.231Z,100085.28
2017-09-15T00:42:34.639Z,100085.11
2017-09-15T00:45:02.035Z,100080.60
2017-09-15T00:47:29.431Z,100081.10
2017-09-15T00:49:56.835Z,100082.30
2017-09-15T00:52:24.231Z,100095.91
2017-09-15T00:54:51.630Z,100097.06
2017-09-15T00:57:19.026Z,100098.02
2017-09-15T01:02:37.275Z,100105.13
2017-09-15T01:05:04.671Z,100101.71
2017-09-15T01:07:32.073Z,100103.70
2017-09-15T01:09:59.471Z,100100.78
2017-09-15T01:12:26.886Z,100100.05
2017-09-15T01:14:54.283Z,100109.81
2017-09-15T01:17:21.682Z,100103.67
2017-09-15T01:19:49.091Z,100102.49
2017-09-15T01:22:16.494Z,100108.05
2017-09-15T01:24:43.899Z,100115.88
2017-09-15T01:27:11.290Z,100105.20
2017-09-15T01:29:38.695Z,100101.07
2017-09-15T01:32:06.091Z,100109.09
2017-09-15T01:34:33.594Z,100101.81
2017-09-15T01:37:00.995Z,100099.54
2017-09-15T01:39:28.400Z,100098.77
2017-09-15T01:41:55.807Z,100101.83
2017-09-15T01:44:23.207Z,100097.47
2017-09-15T01:46:50.606Z,100101.38
2017-09-15T01:49:18.014Z,100095.89
2017-09-15T01:51:45.714Z,100096.34
2017-09-15T01:54:13.135Z,100093.70
2017-09-15T01:56:40.515Z,100095.95
2017-09-15T01:59:07.915Z,100104.64
2017-09-15T02:01:35.311Z,100097.34
2017-09-15T02:04:02.734Z,100098.06
2017-09-15T02:06:30.123Z,100094.83
2017-09-15T02:08:57.666Z,100097.82
2017-09-15T02:11:25.077Z,100088.13
2017-09-15T02:13:52.466Z,100087.63
2017-09-15T02:16:19.871Z,100094.66
2017-09-15T02:18:47.286Z,100088.78
2017-09-15T02:21:14.688Z,100093.53
2017-09-15T02:23:42.082Z,100087.30
2017-09-15T02:26:09.536Z,100078.05
2017-09-15T02:28:36.946Z,100078.08
2017-09-15T02:31:04.351Z,100074.25
2017-09-15T02:33:31.759Z,100066.80
2017-09-15T02:35:59.151Z,100069.97
2017-09-15T02:38:26.565Z,100072.78
2017-09-15T02:40:53.964Z,100066.85
2017-09-15T02:43:21.406Z,100066.78
2017-09-15T02:45:48.799Z,100068.56
2017-09-15T02:48:16.190Z,100064.14
2017-09-15T02:50:43.591Z,100066.48
2017-09-15T02:53:10.992Z,100069.52
2017-09-15T02:55:38.395Z,100070.89
2017-09-15T02:58:05.794Z,100074.75
2017-09-15T03:00:33.228Z,100073.66
2017-09-15T03:03:00.627Z,100075.55
2017-09-15T03:05:28.027Z,100075.05
2017-09-15T03:07:55.434Z,100079.17
2017-09-15T03:10:22.834Z,100074.11
2017-09-15T03:12:50.259Z,100069.98
2017-09-15T03:15:17.659Z,100066.66
2017-09-15T03:17:45.214Z,100064.67
2017-09-15T03:20:12.615Z,100064.37
2017-09-15T03:22:40.016Z,100066.30
2017-09-15T03:25:07.423Z,100070.23
2017-09-15T03:27:34.815Z,100074.78
2017-09-15T03:30:02.223Z,100067.77
2017-09-15T03:32:29.619Z,100073.25
2017-09-15T03:34:57.034Z,100067.29
2017-09-15T03:37:24.430Z,100074.63
2017-09-15T03:39:51.836Z,100080.34
2017-09-15T03:42:19.235Z,100074.77
2017-09-15T03:44:46.631Z,100069.04
2017-09-15T03:47:14.039Z,100069.88
2017-09-15T03:49:41.439Z,100073.25
2017-09-15T03:52:08.992Z,100075.30
2017-09-15T03:54:36.403Z,100070.41
2017-09-15T03:57:03.827Z,100076.52
2017-09-15T03:59:31.256Z,100077.84
2017-09-15T04:01:58.661Z,100070.67
2017-09-15T04:04:26.067Z,100069.59
2017-09-15T04:06:53.454Z,100072.66
2017-09-15T04:09:20.902Z,100069.98
2017-09-15T04:11:48.316Z,100065.27
2017-09-15T04:14:15.716Z,100066.36
2017-09-15T04:16:43.114Z,100071.23
2017-09-15T04:19:10.530Z,100075.82
2017-09-15T04:21:37.930Z,100067.77
2017-09-15T04:24:05.328Z,100067.77
2017-09-15T04:26:32.738Z,100068.19
2017-09-15T04:29:00.156Z,100067.89
2017-09-15T04:31:27.559Z,100064.03
2017-09-15T04:33:54.954Z,100064.23
2017-09-15T04:36:22.370Z,100062.66
2017-09-15T04:38:49.778Z,100063.70
2017-09-15T04:41:17.179Z,100056.78
2017-09-15T04:43:44.843Z,100061.49
2017-09-15T04:46:12.230Z,100055.98
2017-09-15T04:48:39.622Z,100054.09
2017-09-15T04:51:07.187Z,100058.56
2017-09-15T04:53:34.610Z,100051.38
2017-09-15T04:56:02.000Z,100049.96
2017-09-15T04:58:29.407Z,100045.34
2017-09-15T05:01:01.673Z,100042.99
2017-09-15T05:03:29.099Z,100040.20
2017-09-15T05:05:56.493Z,100043.41
2017-09-15T05:08:23.900Z,100042.28
2017-09-15T05:10:51.286Z,100041.66
2017-09-15T05:13:18.706Z,100041.46
2017-09-15T05:15:46.094Z,100038.83
2017-09-15T05:18:13.492Z,100030.66
2017-09-15T05:20:40.887Z,100033.61
2017-09-15T05:23:08.275Z,100030.70
2017-09-15T05:25:35.682Z,100028.81
2017-09-15T05:28:03.063Z,100033.50
2017-09-15T05:30:30.963Z,100031.24
2017-09-15T05:32:58.354Z,100032.42
2017-09-15T05:35:25.751Z,100024.31
2017-09-15T05:37:53.162Z,100027.86
2017-09-15T05:40:20.555Z,100029.58
2017-09-15T05:42:47.959Z,100021.89
2017-09-15T05:45:15.346Z,100019.84
2017-09-15T05:47:42.773Z,100017.95
2017-09-15T05:50:10.147Z,100015.38
2017-09-15T05:52:37.559Z,100011.11
2017-09-15T05:55:04.962Z,100009.72
2017-09-15T05:57:32.359Z,100005.02
2017-09-15T05:59:59.763Z,100002.45
2017-09-15T06:02:27.155Z,100005.33
2017-09-15T06:04:54.562Z,100005.63
2017-09-15T06:07:21.951Z,100005.45
2017-09-15T06:09:49.347Z,100007.94
2017-09-15T06:12:16.750Z,100002.88
2017-09-15T06:14:44.143Z,100002.27
2017-09-15T06:17:11.543Z,100003.09
2017-09-15T06:19:38.938Z,100002.41
2017-09-15T06:22:06.339Z,100005.25
2017-09-15T06:24:33.726Z,100005.56
2017-09-15T06:27:01.116Z,100007.89
2017-09-15T06:29:28.515Z,100013.74
2017-09-15T06:31:55.899Z,100004.78
2017-09-15T06:34:23.632Z,100001.52
2017-09-15T06:36:51.014Z,100000.02
2017-09-15T06:39:18.406Z,99999.89
2017-09-15T06:41:45.810Z,100000.89
2017-09-15T06:44:13.196Z,99999.91
2017-09-15T06:46:40.594Z,100002.09
2017-09-15T06:49:07.988Z,100000.13
2017-09-15T06:51:35.382Z,100007.10
2017-09-15T06:54:02.780Z,100009.08
2017-09-15T06:56:30.172Z,100007.09
2017-09-15T06:58:57.559Z,100009.44
2017-09-15T07:01:24.958Z,100002.50
2017-09-15T07:03:52.499Z,100007.93
2017-09-15T07:06:19.886Z,100009.30
2017-09-15T07:08:47.284Z,100004.81
2017-09-15T07:11:14.679Z,100008.33
2017-09-15T07:13:42.072Z,100008.17
2017-09-15T07:16:09.484Z,100009.73
2017-09-15T07:18:36.884Z,100009.17
2017-09-15T07:21:04.271Z,100014.91
2017-09-15T07:23:31.671Z,100009.31
2017-09-15T07:25:59.079Z,100011.89
2017-09-15T07:28:26.486Z,100015.62
2017-09-15T07:30:53.894Z,100012.31
2017-09-15T07:33:21.283Z,100013.81
2017-09-15T07:35:48.682Z,100024.19
2017-09-15T07:38:16.083Z,100026.72
2017-09-15T07:40:43.482Z,100030.06
2017-09-15T07:43:10.878Z,100030.62
2017-09-15T07:45:38.298Z,100035.55
2017-09-15T07:48:05.682Z,100032.38
2017-09-15T07:50:33.071Z,100039.66
2017-09-15T07:53:00.460Z,100040.69
2017-09-15T07:55:28.274Z,100043.30
2017-09-15T07:57:55.883Z,100046.42
2017-09-15T08:00:23.283Z,100049.03
2017-09-15T08:02:50.683Z,100050.94
2017-09-15T08:05:18.079Z,100044.58
2017-09-15T08:07:45.475Z,100047.05
2017-09-15T08:10:12.866Z,100047.98
2017-09-15T08:12:40.254Z,100041.20
2017-09-15T08:15:07.656Z,100047.31
2017-09-15T08:17:35.048Z,100047.33
2017-09-15T08:20:02.455Z,100046.33
2017-09-15T08:22:29.838Z,100046.22
2017-09-15T08:24:57.382Z,100047.28
2017-09-15T08:27:24.775Z,100045.70
2017-09-15T08:29:52.167Z,100044.56
2017-09-15T08:32:19.564Z,100043.40
2017-09-15T08:34:46.946Z,100047.50
2017-09-15T08:37:14.344Z,100051.98
2017-09-15T08:39:41.731Z,100043.80
2017-09-15T08:42:23.672Z,100040.72
2017-09-15T08:44:51.059Z,100043.52
2017-09-15T08:47:18.450Z,100041.31
2017-09-15T08:49:45.850Z,100044.72
2017-09-15T08:52:13.238Z,100045.80
2017-09-15T08:54:40.638Z,100047.87
2017-09-15T08:57:08.035Z,100048.29
2017-09-15T08:59:35.566Z,100045.13
2017-09-15T09:02:02.964Z,100038.48
2017-09-15T09:04:30.360Z,100035.69
2017-09-15T09:06:57.750Z,100029.44
2017-09-15T09:09:25.145Z,100030.64
2017-09-15T09:11:52.541Z,100027.67
2017-09-15T09:14:19.927Z,100024.02
2017-09-15T09:16:47.355Z,100027.53
2017-09-15T09:19:14.738Z,100016.19
2017-09-15T09:21:42.127Z,100020.95
2017-09-15T09:24:09.556Z,100014.38
2017-09-15T09:26:36.935Z,100016.00
2017-09-15T09:29:04.359Z,100011.69
2017-09-15T09:31:31.749Z,100000.87
2017-09-15T09:33:59.134Z,100002.94
2017-09-15T09:36:26.523Z,99996.09
2017-09-15T09:38:53.911Z,99999.15
2017-09-15T09:41:21.303Z,99991.36
2017-09-15T09:43:48.683Z,99986.52
2017-09-15T09:46:16.084Z,99977.45
2017-09-15T09:48:43.467Z,99974.36
2017-09-15T09:51:10.851Z,99967.78
2017-09-15T09:53:38.249Z,99967.80
2017-09-15T09:56:05.626Z,99968.20
2017-09-15T09:58:33.023Z,99976.95
2017-09-15T10:01:00.403Z,99980.38
2017-09-15T10:03:27.948Z,99982.30
2017-09-15T10:05:55.331Z,99980.11
2017-09-15T10:08:22.723Z,99975.08
2017-09-15T10:10:50.123Z,99974.23
2017-09-15T10:13:17.502Z,99988.22
2017-09-15T10:15:44.894Z,99997.76
2017-09-15T10:18:12.283Z,99990.06
2017-09-15T10:20:39.774Z,99989.07
2017-09-15T10:23:07.166Z,99993.34
2017-09-15T10:25:34.555Z,100001.14
2017-09-15T10:28:01.955Z,99990.22
2017-09-15T10:30:29.339Z,100008.02
2017-09-15T10:32:56.741Z,100002.81
2017-09-15T10:35:24.123Z,99997.36
2017-09-15T10:37:51.535Z,100000.38
2017-09-15T10:40:18.922Z,100000.95
2017-09-15T10:42:46.318Z,99999.88
2017-09-15T10:45:13.734Z,99997.67
2017-09-15T10:47:41.151Z,100000.36
2017-09-15T10:50:08.532Z,99999.48
2017-09-15T10:52:35.927Z,99996.39
2017-09-15T10:55:03.475Z,99990.50
2017-09-15T10:57:36.383Z,99981.28
2017-09-15T11:00:09.899Z,99984.77
2017-09-15T11:02:37.292Z,99987.83
2017-09-15T11:05:04.693Z,99986.72
2017-09-15T11:07:32.082Z,99989.77
2017-09-15T11:09:59.473Z,99982.47
2017-09-15T11:12:26.875Z,99989.33
2017-09-15T11:14:54.262Z,99999.38
2017-09-15T11:17:22.095Z,99988.75
2017-09-15T11:19:49.478Z,99992.55
2017-09-15T11:22:16.860Z,99986.16
2017-09-15T11:24:44.246Z,99991.13
2017-09-15T11:27:11.642Z,99997.52
2017-09-15T11:29:39.034Z,99993.92
2017-09-15T11:32:06.419Z,99997.44
2017-09-15T11:34:33.958Z,99996.03
2017-09-15T11:37:01.346Z,99993.57
2017-09-15T11:39:28.727Z,99986.91
2017-09-15T11:41:56.122Z,99990.38
2017-09-15T11:44:23.498Z,99990.02
2017-09-15T11:46:50.892Z,99986.20
2017-09-15T11:49:18.271Z,99984.02
2017-09-15T11:51:45.811Z,99978.00
2017-09-15T11:54:13.199Z,99979.48
2017-09-15T11:56:40.583Z,99977.84
2017-09-15T11:59:07.976Z,99975.72
2017-09-15T12:01:35.359Z,99977.81
2017-09-15T12:04:02.747Z,99973.11
2017-09-15T12:06:30.122Z,99980.66
2017-09-15T12:08:57.548Z,99976.75
2017-09-15T12:11:24.928Z,99977.09
2017-09-15T12:13:52.359Z,99979.15
2017-09-15T12:16:19.746Z,99989.66
2017-09-15T12:18:47.141Z,99979.26
2017-09-15T12:21:14.543Z,99971.67
2017-09-15T12:23:41.925Z,99968.59
2017-09-15T12:26:09.466Z,99965.42
2017-09-15T12:28:36.839Z,99970.08
2017-09-15T12:31:04.235Z,99962.27
2017-09-15T12:33:31.622Z,99966.27
2017-09-15T12:35:59.016Z,99959.96
2017-09-15T12:38:26.399Z,99955.30
2017-09-15T12:40:53.787Z,99959.12
2017-09-15T12:43:21.666Z,99956.95
2017-09-15T12:45:49.058Z,99963.80
2017-09-15T12:48:16.448Z,99957.41
2017-09-15T12:50:43.893Z,99959.73
2017-09-15T12:53:11.266Z,99959.08
2017-09-15T12:55:38.659Z,99957.69
2017-09-15T12:58:06.047Z,99956.98
2017-09-15T13:00:33.447Z,99951.34
2017-09-15T13:03:00.840Z,99944.64
2017-09-15T13:05:28.214Z,99947.11
2017-09-15T13:07:55.632Z,99947.13
2017-09-15T13:10:23.002Z,99951.49
2017-09-15T13:12:50.387Z,99959.59
2017-09-15T13:15:17.874Z,99958.78
2017-09-15T13:17:45.256Z,99950.53
2017-09-15T13:20:12.655Z,99946.91
2017-09-15T13:22:40.054Z,99946.91
2017-09-15T13:25:07.482Z,99943.09
2017-09-15T13:27:34.889Z,99945.59
2017-09-15T13:30:02.266Z,99943.88
2017-09-15T13:32:29.658Z,99937.66
2017-09-15T13:34:57.052Z,99937.77
2017-09-15T13:37:24.538Z,99931.48
2017-09-15T13:39:51.933Z,99928.23
2017-09-15T13:42:19.316Z,99926.89
2017-09-15T13:44:46.703Z,99927.93
2017-09-15T13:47:14.088Z,99921.67
2017-09-15T13:49:41.636Z,99921.62
2017-09-15T13:52:09.029Z,99924.55
2017-09-15T13:54:36.412Z,99923.16
2017-09-15T13:57:03.824Z,99919.39
2017-09-15T13:59:31.206Z,99919.70
2017-09-15T14:01:58.600Z,99912.52
2017-09-15T14:04:25.979Z,99917.28
2017-09-15T14:06:54.068Z,99920.00
2017-09-15T14:09:21.511Z,99918.55
2017-09-15T14:11:48.928Z,99912.03
2017-09-15T14:14:16.311Z,99910.05
2017-09-15T14:16:43.699Z,99908.27
2017-09-15T14:19:11.100Z,99907.58
2017-09-15T14:21:38.478Z,99912.61
2017-09-15T14:24:05.983Z,99911.86
2017-09-15T14:26:33.367Z,99903.31
2017-09-15T14:29:00.754Z,99905.50
2017-09-15T14:31:28.138Z,99904.69
2017-09-15T14:33:55.563Z,99905.97
2017-09-15T14:36:23.059Z,99902.02
2017-09-15T14:38:50.482Z,99895.98
2017-09-15T14:41:17.855Z,99890.81
2017-09-15T14:43:45.302Z,99881.47
2017-09-15T14:46:12.691Z,99878.94
2017-09-15T14:48:40.092Z,99877.86
2017-09-15T14:51:07.502Z,99880.02
2017-09-15T14:53:35.034Z,99883.56
2017-09-15T14:56:02.413Z,99879.48
2017-09-15T14:58:29.808Z,99879.48
2017-09-15T15:00:57.251Z,99890.82
2017-09-15T15:03:24.639Z,99887.83
2017-09-15T15:05:52.895Z,99889.50
2017-09-15T15:08:20.285Z,99890.11
2017-09-15T15:10:47.667Z,99888.16
2017-09-15T15:13:15.055Z,99884.70
2017-09-15T15:15:42.438Z,99891.89
2017-09-15T15:18:09.835Z,99902.52
2017-09-15T15:20:37.236Z,99900.16
2017-09-15T15:23:05.605Z,99906.36
2017-09-15T15:25:32.978Z,99899.86
2017-09-15T15:28:00.375Z,99909.00
2017-09-15T15:30:27.766Z,99901.93
2017-09-15T15:32:55.152Z,99901.30
2017-09-15T15:35:22.551Z,99907.56
2017-09-15T15:37:49.934Z,99906.88
2017-09-15T15:40:17.356Z,99907.42
2017-09-15T15:42:44.746Z,99908.41
2017-09-15T15:45:12.126Z,99913.95
2017-09-15T15:47:39.529Z,99904.97
2017-09-15T15:50:06.906Z,99908.39
2017-09-15T15:52:34.315Z,99904.45
2017-09-15T15:55:01.720Z,99901.30
2017-09-15T15:57:29.263Z,99907.67
2017-09-15T15:59:56.651Z,99905.20
2017-09-15T16:02:24.051Z,99911.19
2017-09-15T16:04:51.455Z,99911.79
2017-09-15T16:07:18.841Z,99913.30
2017-09-15T16:09:46.246Z,99916.02
2017-09-15T16:12:13.631Z,99919.64
2017-09-15T16:14:41.351Z,99918.55
2017-09-15T16:17:08.739Z,99928.05
2017-09-15T16:19:36.130Z,99928.66
2017-09-15T16:22:04.525Z,99915.22
2017-09-15T16:24:31.898Z,99921.80
2017-09-15T16:26:59.315Z,99917.53
2017-09-15T16:29:26.706Z,99914.30
2017-09-15T16:31:54.123Z,99914.75
2017-09-15T16:34:22.427Z,99908.97
2017-09-15T16:36:51.719Z,99914.95
2017-09-15T16:39:24.750Z,99912.45
2017-09-15T16:41:57.686Z,99919.48
2017-09-15T16:44:30.710Z,99917.11
2017-09-15T16:47:03.595Z,99923.60
2017-09-15T16:49:30.432Z,99919.39
2017-09-15T16:51:57.811Z,99924.58
2017-09-15T16:54:25.194Z,99931.72
2017-09-15T16:56:57.659Z,99931.55
2017-09-15T16:59:25.186Z,99931.77
2017-09-15T17:01:52.571Z,99935.53
2017-09-15T17:04:19.960Z,99936.88
2017-09-15T17:06:47.346Z,99941.46
2017-09-15T17:09:14.737Z,99943.69
2017-09-15T17:11:42.126Z,99937.05
2017-09-15T17:14:09.511Z,99936.69
2017-09-15T17:16:36.926Z,99943.48
2017-09-15T17:19:04.311Z,99939.20
2017-09-15T17:21:31.754Z,99943.73
2017-09-15T17:23:59.151Z,99941.64
2017-09-15T17:26:26.531Z,99938.84
2017-09-15T17:28:54.633Z,99940.47
2017-09-15T17:31:22.896Z,99944.05
2017-09-15T17:33:50.889Z,99940.66
2017-09-15T17:36:18.874Z,99941.42
2017-09-15T17:38:46.941Z,99935.16
2017-09-15T17:41:14.366Z,99934.58
2017-09-15T17:43:41.751Z,99943.37
2017-09-15T17:46:09.140Z,99939.55
2017-09-15T17:48:36.531Z,99932.28
2017-09-15T17:51:04.067Z,99939.74
2017-09-15T17:53:31.479Z,99936.27
2017-09-15T17:55:58.868Z,99933.03
2017-09-15T17:58:26.256Z,99938.22
2017-09-15T18:00:53.648Z,99938.22
2017-09-15T18:03:21.035Z,99937.71
2017-09-15T18:05:48.424Z,99944.14
2017-09-15T18:08:15.830Z,99949.85
2017-09-15T18:10:43.223Z,99957.05
2017-09-15T18:13:10.614Z,99956.55
2017-09-15T18:15:38.007Z,99960.66
2017-09-15T18:18:05.399Z,99958.11
2017-09-15T18:20:32.796Z,99956.80
2017-09-15T18:23:00.186Z,99965.83
2017-09-15T18:25:27.596Z,99968.56
2017-09-15T18:27:55.027Z,99970.26
2017-09-15T18:30:22.412Z,99969.37
2017-09-15T18:32:49.807Z,99974.31
2017-09-15T18:35:17.204Z,99975.55
2017-09-15T18:37:44.600Z,99977.81
2017-09-15T18:40:11.991Z,99976.06
2017-09-15T18:42:39.531Z,99977.41
2017-09-15T18:45:06.923Z,99982.72
2017-09-15T18:47:34.330Z,99984.57
2017-09-15T18:50:01.732Z,99984.57
2017-09-15T18:52:29.126Z,99980.97
2017-09-15T18:54:56.523Z,99983.23
2017-09-15T18:57:23.918Z,99979.44
2017-09-15T18:59:51.619Z,99980.48
2017-09-15T19:02:19.010Z,99988.48
2017-09-15T19:04:46.404Z,99987.30
2017-09-15T19:07:13.808Z,99991.63
2017-09-15T19:09:41.203Z,99994.52
2017-09-15T19:12:08.604Z,99990.45
2017-09-15T19:14:35.986Z,99994.40
2017-09-15T19:17:03.544Z,99993.63
2017-09-15T19:19:30.930Z,99997.38
2017-09-15T19:21:58.326Z,99998.29
2017-09-15T19:24:25.722Z,99996.48
2017-09-15T19:26:53.118Z,99997.38
2017-09-15T19:29:20.522Z,99995.79
2017-09-15T19:31:47.922Z,100001.44
2017-09-15T19:34:15.827Z,99992.00
2017-09-15T19:36:43.218Z,99995.84
2017-09-15T19:39:10.606Z,99995.17
2017-09-15T19:41:38.014Z,100001.30
2017-09-15T19:44:05.406Z,99994.29
2017-09-15T19:46:32.807Z,100007.50
2017-09-15T19:49:00.201Z,100003.99
2017-09-15T19:51:27.743Z,99998.16
2017-09-15T19:53:55.131Z,99995.52
2017-09-15T19:56:22.510Z,99994.89
2017-09-15T19:58:49.911Z,99990.27
2017-09-15T20:01:17.308Z,99991.59
2017-09-15T20:03:44.707Z,99984.80
2017-09-15T20:06:12.099Z,99986.17
2017-09-15T20:08:39.644Z,99986.63
2017-09-15T20:11:07.035Z,99985.50
2017-09-15T20:13:34.444Z,99984.56
2017-09-15T20:16:01.833Z,99983.89
2017-09-15T20:18:29.215Z,99979.95
2017-09-15T20:20:56.610Z,99984.50
2017-09-15T20:23:24.011Z,99982.58
2017-09-15T20:25:51.551Z,99982.98
2017-09-15T20:28:18.947Z,99984.66
2017-09-15T20:30:46.350Z,99978.84
2017-09-15T20:33:13.742Z,99979.23
2017-09-15T20:35:41.139Z,99978.84
2017-09-15T20:38:08.544Z,99977.87
2017-09-15T20:40:35.952Z,99980.18
2017-09-15T20:43:03.455Z,99983.45
2017-09-15T20:45:30.876Z,99982.77
2017-09-15T20:47:58.255Z,99979.16
2017-09-15T20:50:25.655Z,99984.48
2017-09-15T20:52:53.051Z,99986.83
2017-09-15T20:55:20.478Z,99984.96
2017-09-15T20:57:47.874Z,99985.94
2017-09-15T21:00:15.273Z,99988.48
2017-09-15T21:02:42.673Z,99984.19
2017-09-15T21:05:10.063Z,99977.02
2017-09-15T21:07:37.484Z,99984.78
2017-09-15T21:10:04.880Z,99983.53
2017-09-15T21:12:32.693Z,99982.34
2017-09-15T21:15:00.079Z,99980.06
2017-09-15T21:17:27.479Z,99979.92
2017-09-15T21:19:54.879Z,99977.09
2017-09-15T21:22:22.271Z,99979.23
2017-09-15T21:24:49.667Z,99975.81
2017-09-15T21:27:17.063Z,99978.06
2017-09-15T21:29:44.478Z,99983.28
2017-09-15T21:32:11.875Z,99981.74
2017-09-15T21:34:39.266Z,99979.38
2017-09-15T21:37:06.663Z,99981.59
2017-09-15T21:39:34.073Z,99984.47
2017-09-15T21:42:01.471Z,99982.27
2017-09-15T21:44:28.864Z,99967.18
2017-09-15T21:46:56.575Z,99971.61
2017-09-15T21:49:23.978Z,99977.09
2017-09-15T21:51:51.372Z,99976.55
2017-09-15T21:54:18.787Z,99975.97
2017-09-15T21:56:46.184Z,99974.42
2017-09-15T21:59:13.583Z,99975.42
2017-09-15T22:01:40.983Z,99973.47
2017-09-15T22:04:13.907Z,99977.56
2017-09-15T22:06:41.301Z,99973.17
2017-09-15T22:09:08.727Z,99971.67
2017-09-15T22:11:36.123Z,99971.13
2017-09-15T22:14:03.518Z,99971.14
2017-09-15T22:16:30.922Z,99977.63
2017-09-15T22:18:58.320Z,99978.83
2017-09-15T22:21:25.716Z,99971.34
2017-09-15T22:23:53.106Z,99972.03
2017-09-15T22:26:20.611Z,99969.52
2017-09-15T22:28:48.003Z,99976.22
2017-09-15T22:31:15.390Z,99972.81
2017-09-15T22:33:42.794Z,99973.26
2017-09-15T22:36:10.187Z,99972.05
2017-09-15T22:38:37.620Z,99972.37
2017-09-15T22:41:04.983Z,99975.59
2017-09-15T22:43:32.398Z,99972.55
2017-09-15T22:45:59.801Z,99975.86
2017-09-15T22:48:27.191Z,99969.75
2017-09-15T22:50:54.590Z,99973.25
2017-09-15T22:53:22.000Z,99964.18
2017-09-15T22:55:49.392Z,99963.91
2017-09-15T22:58:16.780Z,99960.41
2017-09-15T23:00:44.198Z,99960.88
2017-09-15T23:03:11.599Z,99959.52
2017-09-15T23:05:38.987Z,99957.92
2017-09-15T23:08:06.391Z,99958.86
2017-09-15T23:10:33.791Z,99958.08
2017-09-15T23:13:01.195Z,99951.56
2017-09-15T23:15:28.590Z,99958.13
2017-09-15T23:17:56.000Z,99957.42
2017-09-15T23:20:23.397Z,99955.67
2017-09-15T23:22:50.786Z,99955.52
2017-09-15T23:25:18.187Z,99954.00
2017-09-15T23:27:45.583Z,99950.73
2017-09-15T23:30:12.991Z,99943.77
2017-09-15T23:32:40.386Z,99948.14
2017-09-15T23:35:07.784Z,99948.23
2017-09-15T23:37:35.183Z,99947.02
2017-09-15T23:40:02.569Z,99941.39
2017-09-15T23:42:29.967Z,99944.35
2017-09-15T23:45:14.609Z,99950.11
2017-09-15T23:47:42.011Z,99943.98
2017-09-15T23:50:09.417Z,99948.20
2017-09-15T23:52:36.807Z,99949.02
2017-09-15T23:55:04.209Z,99956.83
2017-09-15T23:57:31.602Z,99953.45
2017-09-15T23:59:59.002Z,99946.91
